sensor_id;sensor_type;location;lat;lon;timestamp;P1;durP1;ratioP1;P2;durP2;ratioP2
37205;SDS011;23099;42.636;23.198;2022-11-15T00:00:45;16.30;;;7.70;;
37205;SDS011;23099;42.636;23.198;2022-11-15T00:03:13;22.70;;;9.67;;
37205;SDS011;23099;42.636;23.198;2022-11-15T00:05:42;14.70;;;7.10;;
37205;SDS011;23099;42.636;23.198;2022-11-15T00:08:09;17.50;;;7.75;;
37205;SDS011;23099;42.636;23.198;2022-11-15T00:10:35;16.03;;;7.53;;
37205;SDS011;23099;42.636;23.198;2022-11-15T00:13:04;25.93;;;12.33;;
37205;SDS011;23099;42.636;23.198;2022-11-15T00:17:58;22.73;;;10.80;;
37205;SDS011;23099;42.636;23.198;2022-11-15T00:20:24;21.70;;;10.93;;
37205;SDS011;23099;42.636;23.198;2022-11-15T00:22:52;18.20;;;9.70;;
37205;SDS011;23099;42.636;23.198;2022-11-15T00:25:19;17.95;;;9.40;;
37205;SDS011;23099;42.636;23.198;2022-11-15T00:27:46;18.87;;;8.23;;
37205;SDS011;23099;42.636;23.198;2022-11-15T00:30:13;21.20;;;8.57;;
37205;SDS011;23099;42.636;23.198;2022-11-15T00:32:39;19.73;;;8.70;;
37205;SDS011;23099;42.636;23.198;2022-11-15T00:35:06;27.27;;;12.50;;
37205;SDS011;23099;42.636;23.198;2022-11-15T00:37:33;19.50;;;9.67;;
37205;SDS011;23099;42.636;23.198;2022-11-15T00:40:02;15.33;;;7.03;;
37205;SDS011;23099;42.636;23.198;2022-11-15T00:44:55;31.97;;;9.97;;
37205;SDS011;23099;42.636;23.198;2022-11-15T00:47:22;19.50;;;8.07;;
37205;SDS011;23099;42.636;23.198;2022-11-15T00:49:48;28.13;;;13.00;;
37205;SDS011;23099;42.636;23.198;2022-11-15T00:52:15;28.13;;;14.27;;
37205;SDS011;23099;42.636;23.198;2022-11-15T00:54:42;25.57;;;13.40;;
37205;SDS011;23099;42.636;23.198;2022-11-15T00:57:10;29.23;;;14.60;;
37205;SDS011;23099;42.636;23.198;2022-11-15T00:59:37;27.17;;;13.48;;
37205;SDS011;23099;42.636;23.198;2022-11-15T01:02:03;28.13;;;14.37;;
37205;SDS011;23099;42.636;23.198;2022-11-15T01:04:30;29.97;;;14.13;;
37205;SDS011;23099;42.636;23.198;2022-11-15T01:06:57;34.70;;;15.93;;
37205;SDS011;23099;42.636;23.198;2022-11-15T01:09:23;27.40;;;13.27;;
37205;SDS011;23099;42.636;23.198;2022-11-15T01:11:50;31.70;;;14.20;;
37205;SDS011;23099;42.636;23.198;2022-11-15T01:14:18;27.20;;;11.43;;
37205;SDS011;23099;42.636;23.198;2022-11-15T01:16:45;35.72;;;17.73;;
37205;SDS011;23099;42.636;23.198;2022-11-15T01:19:12;51.57;;;17.50;;
37205;SDS011;23099;42.636;23.198;2022-11-15T01:21:38;32.83;;;13.20;;
37205;SDS011;23099;42.636;23.198;2022-11-15T01:24:05;54.23;;;21.80;;
37205;SDS011;23099;42.636;23.198;2022-11-15T01:26:32;61.13;;;28.03;;
37205;SDS011;23099;42.636;23.198;2022-11-15T01:28:59;54.87;;;22.27;;
37205;SDS011;23099;42.636;23.198;2022-11-15T01:31:27;55.07;;;22.50;;
37205;SDS011;23099;42.636;23.198;2022-11-15T01:33:54;33.97;;;15.00;;
37205;SDS011;23099;42.636;23.198;2022-11-15T01:36:21;29.77;;;13.70;;
37205;SDS011;23099;42.636;23.198;2022-11-15T01:38:52;34.00;;;13.23;;
37205;SDS011;23099;42.636;23.198;2022-11-15T01:41:20;32.07;;;15.33;;
37205;SDS011;23099;42.636;23.198;2022-11-15T01:43:48;32.43;;;13.67;;
37205;SDS011;23099;42.636;23.198;2022-11-15T01:46:21;30.00;;;13.67;;
37205;SDS011;23099;42.636;23.198;2022-11-15T01:48:53;28.13;;;12.70;;
37205;SDS011;23099;42.636;23.198;2022-11-15T01:51:22;51.93;;;22.97;;
37205;SDS011;23099;42.636;23.198;2022-11-15T01:53:54;65.70;;;29.10;;
37205;SDS011;23099;42.636;23.198;2022-11-15T01:56:24;72.63;;;29.13;;
37205;SDS011;23099;42.636;23.198;2022-11-15T01:58:54;95.57;;;34.40;;
37205;SDS011;23099;42.636;23.198;2022-11-15T02:01:23;110.00;;;34.07;;
37205;SDS011;23099;42.636;23.198;2022-11-15T02:03:53;58.60;;;24.10;;
37205;SDS011;23099;42.636;23.198;2022-11-15T02:06:24;75.83;;;26.83;;
37205;SDS011;23099;42.636;23.198;2022-11-15T02:08:51;55.40;;;23.00;;
37205;SDS011;23099;42.636;23.198;2022-11-15T02:11:18;36.00;;;16.80;;
37205;SDS011;23099;42.636;23.198;2022-11-15T02:13:45;29.57;;;12.90;;
37205;SDS011;23099;42.636;23.198;2022-11-15T02:16:13;19.77;;;9.17;;
37205;SDS011;23099;42.636;23.198;2022-11-15T02:18:47;28.20;;;12.43;;
37205;SDS011;23099;42.636;23.198;2022-11-15T02:21:21;26.77;;;13.97;;
37205;SDS011;23099;42.636;23.198;2022-11-15T02:27:04;29.73;;;12.83;;
37205;SDS011;23099;42.636;23.198;2022-11-15T02:29:57;24.80;;;10.07;;
37205;SDS011;23099;42.636;23.198;2022-11-15T02:32:34;28.57;;;11.50;;
37205;SDS011;23099;42.636;23.198;2022-11-15T02:35:08;26.50;;;10.30;;
37205;SDS011;23099;42.636;23.198;2022-11-15T02:37:43;22.57;;;9.77;;
37205;SDS011;23099;42.636;23.198;2022-11-15T02:40:20;21.03;;;8.63;;
37205;SDS011;23099;42.636;23.198;2022-11-15T02:42:54;21.53;;;8.30;;
37205;SDS011;23099;42.636;23.198;2022-11-15T02:45:44;20.10;;;7.57;;
37205;SDS011;23099;42.636;23.198;2022-11-15T02:48:19;18.43;;;6.97;;
37205;SDS011;23099;42.636;23.198;2022-11-15T02:50:48;16.73;;;6.43;;
37205;SDS011;23099;42.636;23.198;2022-11-15T02:53:15;22.83;;;9.00;;
37205;SDS011;23099;42.636;23.198;2022-11-15T02:55:43;30.53;;;11.53;;
37205;SDS011;23099;42.636;23.198;2022-11-15T03:01:16;24.83;;;10.17;;
37205;SDS011;23099;42.636;23.198;2022-11-15T03:03:59;26.07;;;10.50;;
37205;SDS011;23099;42.636;23.198;2022-11-15T03:06:34;25.10;;;10.60;;
37205;SDS011;23099;42.636;23.198;2022-11-15T03:09:05;23.67;;;10.57;;
37205;SDS011;23099;42.636;23.198;2022-11-15T03:11:37;22.53;;;9.77;;
37205;SDS011;23099;42.636;23.198;2022-11-15T03:14:09;21.83;;;9.90;;
37205;SDS011;23099;42.636;23.198;2022-11-15T03:16:45;20.35;;;9.45;;
37205;SDS011;23099;42.636;23.198;2022-11-15T03:19:19;35.33;;;17.10;;
37205;SDS011;23099;42.636;23.198;2022-11-15T03:21:55;38.07;;;18.07;;
37205;SDS011;23099;42.636;23.198;2022-11-15T03:24:24;37.00;;;19.30;;
37205;SDS011;23099;42.636;23.198;2022-11-15T03:26:53;34.73;;;18.20;;
37205;SDS011;23099;42.636;23.198;2022-11-15T03:29:22;25.63;;;13.80;;
37205;SDS011;23099;42.636;23.198;2022-11-15T03:31:53;29.97;;;15.97;;
37205;SDS011;23099;42.636;23.198;2022-11-15T03:34:27;26.77;;;14.43;;
37205;SDS011;23099;42.636;23.198;2022-11-15T03:36:58;28.33;;;12.60;;
37205;SDS011;23099;42.636;23.198;2022-11-15T03:39:26;26.13;;;11.73;;
37205;SDS011;23099;42.636;23.198;2022-11-15T03:41:56;23.05;;;11.45;;
37205;SDS011;23099;42.636;23.198;2022-11-15T03:44:32;25.07;;;10.80;;
37205;SDS011;23099;42.636;23.198;2022-11-15T03:47:07;19.93;;;9.90;;
37205;SDS011;23099;42.636;23.198;2022-11-15T03:49:40;19.93;;;9.07;;
37205;SDS011;23099;42.636;23.198;2022-11-15T03:52:11;25.73;;;12.03;;
37205;SDS011;23099;42.636;23.198;2022-11-15T03:54:47;25.27;;;11.97;;
37205;SDS011;23099;42.636;23.198;2022-11-15T03:57:14;20.17;;;9.60;;
37205;SDS011;23099;42.636;23.198;2022-11-15T03:59:41;22.33;;;9.23;;
37205;SDS011;23099;42.636;23.198;2022-11-15T04:02:07;23.30;;;10.27;;
37205;SDS011;23099;42.636;23.198;2022-11-15T04:04:34;20.43;;;10.57;;
37205;SDS011;23099;42.636;23.198;2022-11-15T04:07:02;19.00;;;8.60;;
37205;SDS011;23099;42.636;23.198;2022-11-15T04:11:56;23.07;;;7.83;;
37205;SDS011;23099;42.636;23.198;2022-11-15T04:14:23;20.03;;;8.30;;
37205;SDS011;23099;42.636;23.198;2022-11-15T04:16:49;20.20;;;8.63;;
37205;SDS011;23099;42.636;23.198;2022-11-15T04:19:16;15.83;;;7.43;;
37205;SDS011;23099;42.636;23.198;2022-11-15T04:22:00;17.27;;;6.70;;
37205;SDS011;23099;42.636;23.198;2022-11-15T04:24:46;15.87;;;6.47;;
37205;SDS011;23099;42.636;23.198;2022-11-15T04:27:12;14.65;;;6.20;;
37205;SDS011;23099;42.636;23.198;2022-11-15T04:29:39;17.60;;;8.70;;
37205;SDS011;23099;42.636;23.198;2022-11-15T04:32:06;15.60;;;7.40;;
37205;SDS011;23099;42.636;23.198;2022-11-15T04:34:33;51.17;;;24.97;;
37205;SDS011;23099;42.636;23.198;2022-11-15T04:37:00;60.07;;;32.17;;
37205;SDS011;23099;42.636;23.198;2022-11-15T04:39:37;27.00;;;10.03;;
37205;SDS011;23099;42.636;23.198;2022-11-15T04:42:05;47.73;;;20.63;;
37205;SDS011;23099;42.636;23.198;2022-11-15T04:44:33;61.80;;;32.70;;
37205;SDS011;23099;42.636;23.198;2022-11-15T04:46:59;25.47;;;9.77;;
37205;SDS011;23099;42.636;23.198;2022-11-15T04:49:26;17.33;;;8.03;;
37205;SDS011;23099;42.636;23.198;2022-11-15T04:51:53;20.17;;;8.37;;
37205;SDS011;23099;42.636;23.198;2022-11-15T04:54:20;20.37;;;8.93;;
37205;SDS011;23099;42.636;23.198;2022-11-15T04:56:46;14.83;;;6.90;;
37205;SDS011;23099;42.636;23.198;2022-11-15T04:59:14;39.60;;;16.93;;
37205;SDS011;23099;42.636;23.198;2022-11-15T05:01:41;70.55;;;29.85;;
37205;SDS011;23099;42.636;23.198;2022-11-15T05:04:08;26.57;;;13.67;;
37205;SDS011;23099;42.636;23.198;2022-11-15T05:06:46;25.85;;;11.20;;
37205;SDS011;23099;42.636;23.198;2022-11-15T05:09:14;23.77;;;11.90;;
37205;SDS011;23099;42.636;23.198;2022-11-15T05:11:41;26.53;;;12.93;;
37205;SDS011;23099;42.636;23.198;2022-11-15T05:14:08;27.03;;;13.27;;
37205;SDS011;23099;42.636;23.198;2022-11-15T05:16:36;30.67;;;16.40;;
37205;SDS011;23099;42.636;23.198;2022-11-15T05:19:03;32.05;;;16.30;;
37205;SDS011;23099;42.636;23.198;2022-11-15T05:21:30;37.13;;;17.57;;
37205;SDS011;23099;42.636;23.198;2022-11-15T05:23:58;27.00;;;15.20;;
37205;SDS011;23099;42.636;23.198;2022-11-15T05:26:25;28.93;;;15.03;;
37205;SDS011;23099;42.636;23.198;2022-11-15T05:28:52;33.67;;;16.43;;
37205;SDS011;23099;42.636;23.198;2022-11-15T05:31:20;33.08;;;15.90;;
37205;SDS011;23099;42.636;23.198;2022-11-15T05:33:48;53.27;;;26.70;;
37205;SDS011;23099;42.636;23.198;2022-11-15T05:36:17;81.40;;;43.43;;
37205;SDS011;23099;42.636;23.198;2022-11-15T05:38:52;98.07;;;41.87;;
37205;SDS011;23099;42.636;23.198;2022-11-15T05:41:20;84.57;;;38.35;;
37205;SDS011;23099;42.636;23.198;2022-11-15T05:43:52;92.10;;;57.70;;
37205;SDS011;23099;42.636;23.198;2022-11-15T05:46:19;164.60;;;137.17;;
37205;SDS011;23099;42.636;23.198;2022-11-15T05:48:47;78.50;;;44.10;;
37205;SDS011;23099;42.636;23.198;2022-11-15T05:51:18;40.63;;;22.27;;
37205;SDS011;23099;42.636;23.198;2022-11-15T05:53:48;59.50;;;34.17;;
37205;SDS011;23099;42.636;23.198;2022-11-15T05:56:16;44.88;;;22.08;;
37205;SDS011;23099;42.636;23.198;2022-11-15T05:58:42;39.27;;;20.23;;
37205;SDS011;23099;42.636;23.198;2022-11-15T06:01:09;40.00;;;19.63;;
37205;SDS011;23099;42.636;23.198;2022-11-15T06:03:36;47.73;;;21.93;;
37205;SDS011;23099;42.636;23.198;2022-11-15T06:06:05;69.63;;;33.23;;
37205;SDS011;23099;42.636;23.198;2022-11-15T06:11:02;40.87;;;20.43;;
37205;SDS011;23099;42.636;23.198;2022-11-15T06:13:29;57.57;;;29.97;;
37205;SDS011;23099;42.636;23.198;2022-11-15T06:15:56;36.50;;;16.60;;
37205;SDS011;23099;42.636;23.198;2022-11-15T06:18:23;35.10;;;17.67;;
37205;SDS011;23099;42.636;23.198;2022-11-15T06:20:50;41.40;;;22.40;;
37205;SDS011;23099;42.636;23.198;2022-11-15T06:23:18;38.33;;;21.10;;
37205;SDS011;23099;42.636;23.198;2022-11-15T06:25:45;38.90;;;21.23;;
37205;SDS011;23099;42.636;23.198;2022-11-15T06:28:11;49.27;;;24.33;;
37205;SDS011;23099;42.636;23.198;2022-11-15T06:30:38;53.43;;;25.40;;
37205;SDS011;23099;42.636;23.198;2022-11-15T06:33:05;46.30;;;21.70;;
37205;SDS011;23099;42.636;23.198;2022-11-15T06:35:34;38.57;;;19.13;;
37205;SDS011;23099;42.636;23.198;2022-11-15T06:38:02;43.28;;;21.67;;
37205;SDS011;23099;42.636;23.198;2022-11-15T06:40:32;45.58;;;22.25;;
37205;SDS011;23099;42.636;23.198;2022-11-15T06:42:59;46.10;;;22.53;;
37205;SDS011;23099;42.636;23.198;2022-11-15T06:45:26;48.67;;;23.37;;
37205;SDS011;23099;42.636;23.198;2022-11-15T06:47:53;47.40;;;22.70;;
37205;SDS011;23099;42.636;23.198;2022-11-15T06:50:19;51.63;;;25.57;;
37205;SDS011;23099;42.636;23.198;2022-11-15T06:52:46;55.90;;;28.83;;
37205;SDS011;23099;42.636;23.198;2022-11-15T06:55:13;54.10;;;28.70;;
37205;SDS011;23099;42.636;23.198;2022-11-15T06:57:47;45.77;;;24.70;;
37205;SDS011;23099;42.636;23.198;2022-11-15T07:00:14;44.72;;;24.95;;
37205;SDS011;23099;42.636;23.198;2022-11-15T07:05:09;59.47;;;26.88;;
37205;SDS011;23099;42.636;23.198;2022-11-15T07:07:36;65.75;;;31.05;;
37205;SDS011;23099;42.636;23.198;2022-11-15T07:10:03;80.20;;;37.40;;
37205;SDS011;23099;42.636;23.198;2022-11-15T07:12:30;79.10;;;33.27;;
37205;SDS011;23099;42.636;23.198;2022-11-15T07:14:58;65.45;;;29.75;;
37205;SDS011;23099;42.636;23.198;2022-11-15T07:17:25;70.97;;;30.60;;
37205;SDS011;23099;42.636;23.198;2022-11-15T07:19:52;50.08;;;25.15;;
37205;SDS011;23099;42.636;23.198;2022-11-15T07:22:18;46.05;;;21.63;;
37205;SDS011;23099;42.636;23.198;2022-11-15T07:24:45;35.53;;;18.00;;
37205;SDS011;23099;42.636;23.198;2022-11-15T07:27:12;44.75;;;20.50;;
37205;SDS011;23099;42.636;23.198;2022-11-15T07:29:39;37.78;;;20.20;;
37205;SDS011;23099;42.636;23.198;2022-11-15T07:32:07;40.63;;;18.88;;
37205;SDS011;23099;42.636;23.198;2022-11-15T07:34:33;40.72;;;18.15;;
37205;SDS011;23099;42.636;23.198;2022-11-15T07:37:00;37.47;;;19.23;;
37205;SDS011;23099;42.636;23.198;2022-11-15T07:39:27;35.80;;;17.65;;
37205;SDS011;23099;42.636;23.198;2022-11-15T07:41:53;31.67;;;16.17;;
37205;SDS011;23099;42.636;23.198;2022-11-15T07:44:40;34.38;;;17.02;;
37205;SDS011;23099;42.636;23.198;2022-11-15T07:47:08;33.53;;;16.83;;
37205;SDS011;23099;42.636;23.198;2022-11-15T07:49:35;34.90;;;18.05;;
37205;SDS011;23099;42.636;23.198;2022-11-15T07:52:02;35.38;;;18.02;;
37205;SDS011;23099;42.636;23.198;2022-11-15T07:54:28;32.60;;;17.15;;
37205;SDS011;23099;42.636;23.198;2022-11-15T07:56:55;27.85;;;15.70;;
37205;SDS011;23099;42.636;23.198;2022-11-15T07:59:22;28.52;;;15.48;;
37205;SDS011;23099;42.636;23.198;2022-11-15T08:01:49;30.73;;;16.15;;
37205;SDS011;23099;42.636;23.198;2022-11-15T08:04:17;31.17;;;15.50;;
37205;SDS011;23099;42.636;23.198;2022-11-15T08:06:43;24.85;;;15.30;;
37205;SDS011;23099;42.636;23.198;2022-11-15T08:09:11;27.15;;;14.98;;
37205;SDS011;23099;42.636;23.198;2022-11-15T08:11:38;25.20;;;14.23;;
37205;SDS011;23099;42.636;23.198;2022-11-15T08:14:04;28.35;;;14.45;;
37205;SDS011;23099;42.636;23.198;2022-11-15T08:16:31;31.33;;;14.68;;
37205;SDS011;23099;42.636;23.198;2022-11-15T08:18:58;26.63;;;14.52;;
37205;SDS011;23099;42.636;23.198;2022-11-15T08:21:26;28.27;;;13.73;;
37205;SDS011;23099;42.636;23.198;2022-11-15T08:23:53;29.83;;;15.73;;
37205;SDS011;23099;42.636;23.198;2022-11-15T08:26:19;30.33;;;16.60;;
37205;SDS011;23099;42.636;23.198;2022-11-15T08:28:46;34.05;;;18.23;;
37205;SDS011;23099;42.636;23.198;2022-11-15T08:31:13;36.25;;;19.60;;
37205;SDS011;23099;42.636;23.198;2022-11-15T08:33:41;30.35;;;17.88;;
37205;SDS011;23099;42.636;23.198;2022-11-15T08:36:10;31.33;;;17.98;;
37205;SDS011;23099;42.636;23.198;2022-11-15T08:38:40;33.13;;;16.92;;
37205;SDS011;23099;42.636;23.198;2022-11-15T08:41:10;35.05;;;17.25;;
37205;SDS011;23099;42.636;23.198;2022-11-15T08:43:39;32.60;;;17.05;;
37205;SDS011;23099;42.636;23.198;2022-11-15T08:46:07;32.63;;;18.27;;
37205;SDS011;23099;42.636;23.198;2022-11-15T08:48:38;37.92;;;18.65;;
37205;SDS011;23099;42.636;23.198;2022-11-15T08:51:04;39.80;;;21.15;;
37205;SDS011;23099;42.636;23.198;2022-11-15T08:53:31;40.45;;;22.13;;
37205;SDS011;23099;42.636;23.198;2022-11-15T08:55:59;45.30;;;23.73;;
37205;SDS011;23099;42.636;23.198;2022-11-15T08:58:26;44.20;;;23.42;;
37205;SDS011;23099;42.636;23.198;2022-11-15T09:00:53;46.38;;;24.67;;
37205;SDS011;23099;42.636;23.198;2022-11-15T09:03:20;46.55;;;25.38;;
37205;SDS011;23099;42.636;23.198;2022-11-15T09:05:47;46.42;;;24.77;;
37205;SDS011;23099;42.636;23.198;2022-11-15T09:08:13;47.45;;;25.73;;
37205;SDS011;23099;42.636;23.198;2022-11-15T09:10:40;50.05;;;25.75;;
37205;SDS011;23099;42.636;23.198;2022-11-15T09:13:08;44.15;;;24.48;;
37205;SDS011;23099;42.636;23.198;2022-11-15T09:15:35;49.75;;;26.42;;
37205;SDS011;23099;42.636;23.198;2022-11-15T09:18:01;53.35;;;28.42;;
37205;SDS011;23099;42.636;23.198;2022-11-15T09:20:28;51.92;;;27.75;;
37205;SDS011;23099;42.636;23.198;2022-11-15T09:22:58;57.97;;;29.25;;
37205;SDS011;23099;42.636;23.198;2022-11-15T09:25:26;58.13;;;29.02;;
37205;SDS011;23099;42.636;23.198;2022-11-15T09:27:52;60.20;;;29.92;;
37205;SDS011;23099;42.636;23.198;2022-11-15T09:30:20;62.70;;;32.00;;
37205;SDS011;23099;42.636;23.198;2022-11-15T09:32:47;66.82;;;33.20;;
37205;SDS011;23099;42.636;23.198;2022-11-15T09:35:14;69.68;;;34.55;;
37205;SDS011;23099;42.636;23.198;2022-11-15T09:37:41;68.20;;;34.42;;
37205;SDS011;23099;42.636;23.198;2022-11-15T09:40:08;68.13;;;36.05;;
37205;SDS011;23099;42.636;23.198;2022-11-15T09:42:43;70.97;;;37.40;;
37205;SDS011;23099;42.636;23.198;2022-11-15T09:45:19;67.15;;;34.33;;
37205;SDS011;23099;42.636;23.198;2022-11-15T09:47:56;65.07;;;35.60;;
37205;SDS011;23099;42.636;23.198;2022-11-15T09:50:37;73.03;;;35.95;;
37205;SDS011;23099;42.636;23.198;2022-11-15T09:53:09;68.72;;;34.53;;
37205;SDS011;23099;42.636;23.198;2022-11-15T09:55:40;71.95;;;36.45;;
37205;SDS011;23099;42.636;23.198;2022-11-15T09:58:15;70.57;;;34.53;;
37205;SDS011;23099;42.636;23.198;2022-11-15T10:34:48;69.22;;;34.70;;
37205;SDS011;23099;42.636;23.198;2022-11-15T10:37:22;64.47;;;31.17;;
37205;SDS011;23099;42.636;23.198;2022-11-15T10:40:02;58.22;;;28.52;;
37205;SDS011;23099;42.636;23.198;2022-11-15T10:42:29;38.00;;;21.10;;
37205;SDS011;23099;42.636;23.198;2022-11-15T10:44:56;35.20;;;17.90;;
37205;SDS011;23099;42.636;23.198;2022-11-15T10:47:27;31.15;;;16.40;;
37205;SDS011;23099;42.636;23.198;2022-11-15T10:49:58;29.83;;;14.25;;
37205;SDS011;23099;42.636;23.198;2022-11-15T10:52:27;34.42;;;15.90;;
37205;SDS011;23099;42.636;23.198;2022-11-15T10:54:57;31.00;;;16.20;;
37205;SDS011;23099;42.636;23.198;2022-11-15T10:57:28;37.15;;;18.42;;
37205;SDS011;23099;42.636;23.198;2022-11-15T10:59:59;60.38;;;29.63;;
37205;SDS011;23099;42.636;23.198;2022-11-15T11:02:29;71.00;;;36.28;;
37205;SDS011;23099;42.636;23.198;2022-11-15T11:04:59;73.90;;;36.75;;
37205;SDS011;23099;42.636;23.198;2022-11-15T11:07:27;74.32;;;35.70;;
37205;SDS011;23099;42.636;23.198;2022-11-15T11:09:59;69.72;;;35.63;;
37205;SDS011;23099;42.636;23.198;2022-11-15T11:12:28;74.82;;;36.50;;
37205;SDS011;23099;42.636;23.198;2022-11-15T11:14:57;71.47;;;36.63;;
37205;SDS011;23099;42.636;23.198;2022-11-15T11:17:29;60.63;;;32.03;;
37205;SDS011;23099;42.636;23.198;2022-11-15T11:20:09;83.47;;;39.03;;
37205;SDS011;23099;42.636;23.198;2022-11-15T11:22:49;91.22;;;46.72;;
37205;SDS011;23099;42.636;23.198;2022-11-15T11:25:28;76.57;;;40.85;;
37205;SDS011;23099;42.636;23.198;2022-11-15T11:28:05;83.82;;;45.47;;
37205;SDS011;23099;42.636;23.198;2022-11-15T11:30:48;83.32;;;44.92;;
37205;SDS011;23099;42.636;23.198;2022-11-15T11:33:24;89.10;;;46.58;;
37205;SDS011;23099;42.636;23.198;2022-11-15T11:35:59;91.63;;;48.20;;
37205;SDS011;23099;42.636;23.198;2022-11-15T11:38:49;87.60;;;45.67;;
37205;SDS011;23099;42.636;23.198;2022-11-15T11:44:14;87.70;;;46.83;;
37205;SDS011;23099;42.636;23.198;2022-11-15T11:46:52;93.28;;;51.55;;
37205;SDS011;23099;42.636;23.198;2022-11-15T11:49:24;95.55;;;49.55;;
37205;SDS011;23099;42.636;23.198;2022-11-15T11:51:59;101.60;;;54.90;;
37205;SDS011;23099;42.636;23.198;2022-11-15T11:54:31;103.93;;;53.40;;
37205;SDS011;23099;42.636;23.198;2022-11-15T11:57:06;101.70;;;54.97;;
37205;SDS011;23099;42.636;23.198;2022-11-15T12:02:15;106.88;;;56.70;;
37205;SDS011;23099;42.636;23.198;2022-11-15T12:04:48;107.60;;;57.13;;
37205;SDS011;23099;42.636;23.198;2022-11-15T12:07:19;107.60;;;55.95;;
37205;SDS011;23099;42.636;23.198;2022-11-15T12:09:51;114.45;;;61.35;;
37205;SDS011;23099;42.636;23.198;2022-11-15T12:12:25;117.32;;;62.47;;
37205;SDS011;23099;42.636;23.198;2022-11-15T12:28:24;118.65;;;61.90;;
37205;SDS011;23099;42.636;23.198;2022-11-15T12:31:01;128.80;;;63.92;;
37205;SDS011;23099;42.636;23.198;2022-11-15T12:33:32;121.60;;;63.35;;
37205;SDS011;23099;42.636;23.198;2022-11-15T12:39:02;130.40;;;65.85;;
37205;SDS011;23099;42.636;23.198;2022-11-15T12:41:32;230.52;;;107.30;;
37205;SDS011;23099;42.636;23.198;2022-11-15T12:44:00;138.73;;;68.15;;
37205;SDS011;23099;42.636;23.198;2022-11-15T12:49:48;130.30;;;66.32;;
37205;SDS011;23099;42.636;23.198;2022-11-15T12:52:15;128.45;;;66.10;;
37205;SDS011;23099;42.636;23.198;2022-11-15T12:57:52;128.18;;;63.85;;
37205;SDS011;23099;42.636;23.198;2022-11-15T13:06:39;135.30;;;67.13;;
37205;SDS011;23099;42.636;23.198;2022-11-15T13:18:32;137.55;;;65.45;;
37205;SDS011;23099;42.636;23.198;2022-11-15T13:21:04;127.65;;;64.05;;
37205;SDS011;23099;42.636;23.198;2022-11-15T13:24:02;118.10;;;61.58;;
37205;SDS011;23099;42.636;23.198;2022-11-15T13:26:29;127.47;;;62.72;;
37205;SDS011;23099;42.636;23.198;2022-11-15T13:28:57;130.48;;;62.05;;
37205;SDS011;23099;42.636;23.198;2022-11-15T13:31:31;124.72;;;62.88;;
37205;SDS011;23099;42.636;23.198;2022-11-15T13:34:03;117.38;;;62.17;;
37205;SDS011;23099;42.636;23.198;2022-11-15T13:36:41;123.50;;;63.20;;
37205;SDS011;23099;42.636;23.198;2022-11-15T13:39:12;125.53;;;63.50;;
37205;SDS011;23099;42.636;23.198;2022-11-15T13:41:50;121.60;;;61.22;;
37205;SDS011;23099;42.636;23.198;2022-11-15T13:44:19;127.70;;;64.45;;
37205;SDS011;23099;42.636;23.198;2022-11-15T13:47:01;123.40;;;61.85;;
37205;SDS011;23099;42.636;23.198;2022-11-15T13:49:30;119.63;;;64.05;;
37205;SDS011;23099;42.636;23.198;2022-11-15T13:51:58;140.07;;;69.60;;
37205;SDS011;23099;42.636;23.198;2022-11-15T13:56:56;121.53;;;65.10;;
37205;SDS011;23099;42.636;23.198;2022-11-15T13:59:27;123.47;;;63.90;;
37205;SDS011;23099;42.636;23.198;2022-11-15T14:01:57;121.60;;;62.80;;
37205;SDS011;23099;42.636;23.198;2022-11-15T14:04:28;120.30;;;62.72;;
37205;SDS011;23099;42.636;23.198;2022-11-15T14:06:59;118.97;;;64.07;;
37205;SDS011;23099;42.636;23.198;2022-11-15T14:12:22;114.82;;;61.92;;
37205;SDS011;23099;42.636;23.198;2022-11-15T14:14:52;119.20;;;60.13;;
37205;SDS011;23099;42.636;23.198;2022-11-15T14:17:20;114.90;;;59.17;;
37205;SDS011;23099;42.636;23.198;2022-11-15T14:19:59;116.30;;;63.05;;
37205;SDS011;23099;42.636;23.198;2022-11-15T14:25:07;130.27;;;63.63;;
37205;SDS011;23099;42.636;23.198;2022-11-15T14:27:41;128.75;;;65.88;;
37205;SDS011;23099;42.636;23.198;2022-11-15T14:30:12;128.23;;;66.85;;
37205;SDS011;23099;42.636;23.198;2022-11-15T14:32:42;127.40;;;67.50;;
37205;SDS011;23099;42.636;23.198;2022-11-15T14:35:14;127.00;;;67.88;;
37205;SDS011;23099;42.636;23.198;2022-11-15T14:37:43;119.22;;;64.40;;
37205;SDS011;23099;42.636;23.198;2022-11-15T14:40:12;121.68;;;64.90;;
37205;SDS011;23099;42.636;23.198;2022-11-15T14:42:41;125.15;;;65.68;;
37205;SDS011;23099;42.636;23.198;2022-11-15T14:45:09;127.20;;;64.50;;
37205;SDS011;23099;42.636;23.198;2022-11-15T14:47:39;120.00;;;64.20;;
37205;SDS011;23099;42.636;23.198;2022-11-15T14:50:10;120.40;;;62.63;;
37205;SDS011;23099;42.636;23.198;2022-11-15T14:52:39;121.28;;;63.25;;
37205;SDS011;23099;42.636;23.198;2022-11-15T14:55:11;116.07;;;62.10;;
37205;SDS011;23099;42.636;23.198;2022-11-15T14:57:42;119.28;;;61.78;;
37205;SDS011;23099;42.636;23.198;2022-11-15T15:00:10;122.25;;;62.47;;
37205;SDS011;23099;42.636;23.198;2022-11-15T15:02:37;124.75;;;63.00;;
37205;SDS011;23099;42.636;23.198;2022-11-15T15:05:10;118.93;;;60.30;;
37205;SDS011;23099;42.636;23.198;2022-11-15T15:07:41;116.35;;;58.80;;
37205;SDS011;23099;42.636;23.198;2022-11-15T15:10:08;110.25;;;59.17;;
37205;SDS011;23099;42.636;23.198;2022-11-15T15:12:35;115.72;;;57.28;;
37205;SDS011;23099;42.636;23.198;2022-11-15T15:15:02;114.95;;;58.08;;
37205;SDS011;23099;42.636;23.198;2022-11-15T15:17:29;129.93;;;62.23;;
37205;SDS011;23099;42.636;23.198;2022-11-15T15:19:56;130.88;;;66.40;;
37205;SDS011;23099;42.636;23.198;2022-11-15T15:22:24;133.88;;;66.95;;
37205;SDS011;23099;42.636;23.198;2022-11-15T15:24:55;155.10;;;80.35;;
37205;SDS011;23099;42.636;23.198;2022-11-15T15:27:22;176.77;;;89.38;;
37205;SDS011;23099;42.636;23.198;2022-11-15T15:29:48;156.00;;;81.00;;
37205;SDS011;23099;42.636;23.198;2022-11-15T15:32:15;169.98;;;90.43;;
37205;SDS011;23099;42.636;23.198;2022-11-15T15:34:42;183.27;;;91.65;;
37205;SDS011;23099;42.636;23.198;2022-11-15T15:37:09;182.00;;;96.20;;
37205;SDS011;23099;42.636;23.198;2022-11-15T15:39:50;187.15;;;97.18;;
37205;SDS011;23099;42.636;23.198;2022-11-15T15:42:18;176.88;;;92.53;;
37205;SDS011;23099;42.636;23.198;2022-11-15T15:44:45;170.55;;;92.05;;
37205;SDS011;23099;42.636;23.198;2022-11-15T15:47:12;180.27;;;92.55;;
37205;SDS011;23099;42.636;23.198;2022-11-15T15:49:41;183.25;;;94.30;;
37205;SDS011;23099;42.636;23.198;2022-11-15T15:52:08;185.30;;;92.00;;
37205;SDS011;23099;42.636;23.198;2022-11-15T15:54:34;187.52;;;93.00;;
37205;SDS011;23099;42.636;23.198;2022-11-15T15:57:02;175.50;;;91.88;;
37205;SDS011;23099;42.636;23.198;2022-11-15T16:01:56;218.77;;;110.35;;
37205;SDS011;23099;42.636;23.198;2022-11-15T16:04:23;241.88;;;120.75;;
37205;SDS011;23099;42.636;23.198;2022-11-15T16:06:50;248.80;;;130.07;;